createdAt,value
2022-11-02T00:00:34.738Z,12.38
2022-11-02T00:03:03.250Z,12.37
2022-11-02T00:05:33.165Z,12.35
2022-11-02T00:08:01.297Z,12.35
2022-11-02T00:10:29.934Z,12.33
2022-11-02T00:12:58.592Z,12.32
2022-11-02T00:15:29.483Z,12.33
2022-11-02T00:18:02.046Z,12.35
2022-11-02T00:20:30.515Z,12.33
2022-11-02T00:23:03.313Z,12.28
2022-11-02T00:25:31.907Z,12.25
2022-11-02T00:27:59.905Z,12.22
2022-11-02T00:30:27.933Z,12.21
2022-11-02T00:32:57.183Z,12.15
2022-11-02T00:35:25.280Z,12.12
2022-11-02T00:37:53.403Z,12.07
2022-11-02T00:40:23.068Z,12.03
2022-11-02T00:42:51.262Z,12.00
2022-11-02T00:45:19.377Z,11.98
2022-11-02T00:47:47.496Z,11.92
2022-11-02T00:50:15.681Z,11.90
2022-11-02T00:52:44.557Z,11.87
2022-11-02T00:55:13.090Z,11.83
2022-11-02T00:57:43.056Z,11.78
2022-11-02T01:00:14.803Z,11.72
2022-11-02T01:02:43.016Z,11.68
2022-11-02T01:05:12.537Z,11.65
2022-11-02T01:07:40.832Z,11.64
2022-11-02T01:10:10.259Z,11.67
2022-11-02T01:12:38.919Z,11.65
2022-11-02T01:15:10.475Z,11.64
2022-11-02T01:17:39.090Z,11.61
2022-11-02T01:20:08.361Z,11.55
2022-11-02T01:22:36.814Z,11.53
2022-11-02T01:25:05.303Z,11.49
2022-11-02T01:27:33.377Z,11.45
2022-11-02T01:30:01.482Z,11.42
2022-11-02T01:32:31.903Z,11.40
2022-11-02T01:34:59.971Z,11.39
2022-11-02T01:37:28.045Z,11.33
2022-11-02T01:39:56.144Z,11.30
2022-11-02T01:42:26.029Z,11.27
2022-11-02T01:44:54.186Z,11.27
2022-11-02T01:47:28.110Z,11.24
2022-11-02T01:50:03.725Z,11.19
2022-11-02T01:52:36.597Z,11.15
2022-11-02T01:55:10.607Z,11.15
2022-11-02T01:57:41.672Z,11.19
2022-11-02T02:00:12.447Z,11.18
2022-11-02T02:02:46.576Z,11.19
2022-11-02T02:05:18.897Z,11.19
2022-11-02T02:07:47.835Z,11.07
2022-11-02T02:10:16.433Z,11.02
2022-11-02T02:12:45.450Z,11.03
2022-11-02T02:15:14.464Z,11.01
2022-11-02T02:17:49.331Z,10.95
2022-11-02T02:20:38.101Z,10.93
2022-11-02T02:24:00.160Z,10.97
2022-11-02T02:26:52.629Z,10.99
2022-11-02T02:29:23.978Z,10.91
2022-11-02T02:31:59.425Z,10.89
2022-11-02T02:34:35.726Z,10.85
2022-11-02T02:37:08.538Z,10.85
2022-11-02T02:39:44.182Z,10.81
2022-11-02T02:42:20.090Z,10.77
2022-11-02T02:44:56.614Z,10.76
2022-11-02T02:47:28.567Z,10.79
2022-11-02T02:50:02.897Z,10.77
2022-11-02T02:52:34.621Z,10.72
2022-11-02T02:55:05.362Z,10.73
2022-11-02T02:57:36.733Z,10.65
2022-11-02T03:00:14.056Z,10.58
2022-11-02T03:02:42.540Z,10.56
2022-11-02T03:05:24.702Z,10.56
2022-11-02T03:07:53.798Z,10.58
2022-11-02T03:10:29.454Z,10.59
2022-11-02T03:13:10.133Z,10.60
2022-11-02T03:15:43.380Z,10.60
2022-11-02T03:18:25.066Z,10.56
2022-11-02T03:21:04.347Z,10.53
2022-11-02T03:23:36.592Z,10.54
2022-11-02T03:26:09.709Z,10.48
2022-11-02T03:29:00.855Z,10.46
2022-11-02T03:31:39.216Z,10.46
2022-11-02T03:34:18.218Z,10.43
2022-11-02T03:36:49.951Z,10.41
2022-11-02T03:39:21.668Z,10.37
2022-11-02T03:41:53.443Z,10.35
2022-11-02T03:44:25.266Z,10.28
2022-11-02T03:46:59.728Z,10.23
2022-11-02T03:49:29.967Z,10.20
2022-11-02T03:52:01.596Z,10.15
2022-11-02T03:54:42.642Z,10.11
2022-11-02T03:57:17.048Z,10.07
2022-11-02T03:59:45.546Z,10.03
2022-11-02T04:02:17.267Z,9.99
2022-11-02T04:04:53.286Z,10.00
2022-11-02T04:07:25.911Z,9.98
2022-11-02T04:09:54.007Z,10.01
2022-11-02T04:12:38.673Z,9.91
2022-11-02T04:18:11.822Z,9.93
2022-11-02T04:20:40.217Z,9.88
2022-11-02T04:23:25.835Z,9.79
2022-11-02T04:25:55.327Z,9.74
2022-11-02T04:28:23.376Z,9.74
2022-11-02T04:30:51.480Z,9.76
2022-11-02T04:33:35.360Z,9.80
2022-11-02T04:36:04.783Z,9.76
2022-11-02T04:38:41.538Z,9.73
2022-11-02T04:41:28.643Z,9.70
2022-11-02T04:43:56.917Z,9.63
2022-11-02T04:46:26.882Z,9.59
2022-11-02T04:48:56.507Z,9.45
2022-11-02T04:51:27.083Z,9.49
2022-11-02T04:53:56.596Z,9.43
2022-11-02T04:56:25.303Z,9.37
2022-11-02T04:58:54.605Z,9.28
2022-11-02T05:01:25.352Z,9.20
2022-11-02T05:06:42.281Z,9.22
2022-11-02T05:09:11.429Z,9.21
2022-11-02T05:11:39.465Z,9.18
2022-11-02T05:14:07.490Z,9.19
2022-11-02T05:16:35.618Z,9.18
2022-11-02T05:19:06.857Z,9.23
2022-11-02T05:21:37.939Z,9.24
2022-11-02T05:24:08.443Z,9.31
2022-11-02T05:26:36.563Z,9.39
2022-11-02T05:29:04.946Z,9.53
2022-11-02T05:31:33.077Z,9.52
2022-11-02T05:34:01.130Z,9.52
2022-11-02T05:36:29.226Z,9.59
2022-11-02T05:38:57.703Z,9.65
2022-11-02T05:41:27.213Z,9.70
2022-11-02T05:43:55.257Z,9.74
2022-11-02T05:46:23.379Z,9.74
2022-11-02T05:48:51.476Z,9.79
2022-11-02T05:51:19.533Z,9.81
2022-11-02T05:53:47.592Z,9.80
2022-11-02T05:56:18.296Z,9.98
2022-11-02T06:01:23.284Z,10.02
2022-11-02T06:03:53.814Z,10.07
2022-11-02T06:06:22.566Z,10.05
2022-11-02T06:08:50.626Z,10.10
2022-11-02T06:11:18.797Z,10.16
2022-11-02T06:13:52.026Z,10.27
2022-11-02T06:16:23.251Z,10.34
2022-11-02T06:18:52.299Z,10.37
2022-11-02T06:21:20.445Z,10.41
2022-11-02T06:23:49.343Z,10.47
2022-11-02T06:26:17.795Z,10.52
2022-11-02T06:28:45.962Z,10.61
2022-11-02T06:31:17.342Z,10.68
2022-11-02T06:33:45.807Z,10.76
2022-11-02T06:36:13.955Z,10.87
2022-11-02T06:38:42.856Z,10.93
2022-11-02T06:41:11.320Z,11.04
2022-11-02T06:43:39.650Z,11.14
2022-11-02T06:46:08.007Z,11.24
2022-11-02T06:48:37.475Z,11.31
2022-11-02T06:51:06.550Z,11.37
2022-11-02T06:53:35.189Z,11.47
2022-11-02T06:56:03.713Z,11.57
2022-11-02T06:58:32.208Z,11.65
2022-11-02T07:01:02.047Z,11.76
2022-11-02T07:03:31.376Z,11.92
2022-11-02T07:06:01.426Z,12.01
2022-11-02T07:08:30.039Z,12.13
2022-11-02T07:10:59.124Z,12.20
2022-11-02T07:13:27.726Z,12.28
2022-11-02T07:15:56.537Z,12.37
2022-11-02T07:18:24.968Z,12.45
2022-11-02T07:20:53.421Z,12.63
2022-11-02T07:23:24.223Z,12.70
2022-11-02T07:25:52.537Z,12.77
2022-11-02T07:28:20.833Z,12.88
2022-11-02T07:30:49.559Z,12.99
2022-11-02T07:33:17.665Z,13.05
2022-11-02T07:35:48.278Z,13.13
2022-11-02T07:38:16.341Z,13.24
2022-11-02T07:40:50.230Z,13.34
2022-11-02T07:43:18.263Z,13.52
2022-11-02T07:45:46.345Z,13.70
2022-11-02T07:48:14.675Z,13.92
2022-11-02T07:50:42.729Z,13.96
2022-11-02T07:53:11.868Z,14.19
2022-11-02T07:55:40.306Z,14.21
2022-11-02T07:58:13.733Z,14.47
2022-11-02T08:00:43.769Z,14.72
2022-11-02T08:03:14.919Z,14.63
2022-11-02T08:05:44.438Z,14.72
2022-11-02T08:08:15.194Z,14.75
2022-11-02T08:10:44.831Z,15.00
2022-11-02T08:13:16.740Z,15.01
2022-11-02T08:15:45.345Z,15.07
2022-11-02T08:18:17.939Z,15.28
2022-11-02T08:20:47.491Z,15.31
2022-11-02T08:23:16.787Z,15.47
2022-11-02T08:25:46.489Z,15.60
2022-11-02T08:28:18.380Z,15.66
2022-11-02T08:30:46.633Z,15.74
2022-11-02T08:33:16.962Z,15.82
2022-11-02T08:35:46.083Z,15.98
2022-11-02T08:38:14.760Z,16.08
2022-11-02T08:40:43.164Z,16.20
2022-11-02T08:43:13.310Z,16.37
2022-11-02T08:48:33.068Z,16.76
2022-11-02T08:51:02.839Z,16.77
2022-11-02T08:53:30.920Z,16.80
2022-11-02T08:55:59.789Z,16.94
2022-11-02T08:58:27.996Z,17.03
2022-11-02T09:00:58.016Z,17.24
2022-11-02T09:03:27.695Z,17.29
2022-11-02T09:05:59.945Z,17.34
2022-11-02T09:08:28.816Z,17.53
2022-11-02T09:11:01.039Z,17.58
2022-11-02T09:13:29.742Z,17.73
2022-11-02T09:16:01.259Z,17.92
2022-11-02T09:18:30.237Z,18.15
2022-11-02T09:20:58.324Z,18.30
2022-11-02T09:23:26.441Z,18.35
2022-11-02T09:25:54.992Z,18.43
2022-11-02T09:28:23.146Z,18.54
2022-11-02T09:30:51.520Z,18.77
2022-11-02T09:33:21.253Z,18.85
2022-11-02T09:35:50.925Z,18.96
2022-11-02T09:38:19.500Z,19.05
2022-11-02T09:40:56.152Z,19.24
2022-11-02T09:43:36.291Z,19.43
2022-11-02T09:46:08.668Z,19.53
2022-11-02T09:48:43.665Z,19.61
2022-11-02T09:51:15.993Z,19.74
2022-11-02T09:53:54.614Z,19.81
2022-11-02T09:56:23.320Z,19.91
2022-11-02T09:58:58.654Z,20.03
2022-11-02T10:01:39.369Z,20.50
2022-11-02T10:04:31.193Z,20.67
2022-11-02T10:07:06.881Z,20.86
2022-11-02T10:09:44.717Z,21.00
2022-11-02T10:12:17.104Z,21.09
2022-11-02T10:14:54.421Z,21.16
2022-11-02T10:17:26.761Z,21.28
2022-11-02T10:19:57.852Z,21.33
2022-11-02T10:22:30.039Z,21.34
2022-11-02T10:25:02.087Z,21.41
2022-11-02T10:27:36.046Z,21.64
2022-11-02T10:30:07.016Z,21.89
2022-11-02T10:32:37.886Z,22.13
2022-11-02T10:35:33.852Z,22.23
2022-11-02T10:38:20.231Z,22.35
2022-11-02T10:41:07.893Z,22.44
2022-11-02T10:43:52.127Z,22.57
2022-11-02T10:46:38.330Z,22.93
2022-11-02T10:49:14.468Z,22.92
2022-11-02T10:51:44.258Z,23.22
2022-11-02T10:54:17.709Z,23.42
2022-11-02T10:56:50.540Z,23.74
2022-11-02T10:59:20.286Z,24.27
2022-11-02T11:02:04.577Z,24.48
2022-11-02T11:04:34.137Z,24.81
2022-11-02T11:07:08.507Z,24.77
2022-11-02T11:09:46.456Z,25.04
2022-11-02T11:12:21.093Z,25.06
2022-11-02T11:20:36.053Z,25.66
2022-11-02T11:23:32.333Z,25.67
2022-11-02T11:26:02.843Z,25.74
2022-11-02T11:28:33.556Z,25.99
2022-11-02T11:31:08.883Z,25.95
2022-11-02T11:33:44.760Z,26.00
2022-11-02T11:36:21.687Z,26.06
2022-11-02T11:38:53.834Z,26.23
2022-11-02T11:41:22.271Z,26.41
2022-11-02T11:43:52.477Z,26.31
2022-11-02T11:46:20.624Z,26.29
2022-11-02T11:48:51.764Z,26.33
2022-11-02T11:51:29.678Z,26.25
2022-11-02T11:54:28.079Z,26.23
2022-11-02T11:56:58.355Z,26.42
2022-11-02T11:59:32.483Z,26.64
2022-11-02T12:02:03.879Z,26.57
2022-11-02T12:04:36.298Z,26.69
2022-11-02T12:07:36.379Z,26.70
2022-11-02T12:10:19.903Z,26.65
2022-11-02T12:13:00.651Z,26.79
2022-11-02T12:15:41.268Z,26.89
2022-11-02T12:18:35.231Z,27.08
2022-11-02T12:21:15.341Z,26.89
2022-11-02T12:24:03.119Z,26.91
2022-11-02T12:26:48.405Z,27.14
2022-11-02T12:29:35.257Z,27.23
2022-11-02T12:32:10.192Z,27.30
2022-11-02T12:35:23.173Z,27.29
2022-11-02T12:38:02.773Z,27.15
2022-11-02T12:40:43.348Z,27.26
2022-11-02T12:43:32.274Z,27.38
2022-11-02T12:46:05.250Z,27.42
2022-11-02T12:48:46.241Z,27.47
2022-11-02T12:51:19.479Z,27.49
2022-11-02T12:53:50.495Z,27.64
2022-11-02T12:56:24.689Z,27.75
2022-11-02T12:58:54.491Z,27.63
2022-11-02T13:01:29.942Z,27.75
2022-11-02T13:04:04.843Z,27.82
2022-11-02T13:06:38.374Z,27.84
2022-11-02T13:09:11.065Z,27.86
2022-11-02T13:11:42.859Z,27.82
2022-11-02T13:14:15.994Z,27.77
2022-11-02T13:16:50.230Z,27.81
2022-11-02T13:19:23.599Z,27.79
2022-11-02T13:21:55.461Z,27.86
2022-11-02T13:24:31.766Z,27.77
2022-11-02T13:27:14.130Z,27.73
2022-11-02T13:29:53.061Z,27.66
2022-11-02T13:32:33.573Z,27.67
2022-11-02T13:35:07.841Z,27.65
2022-11-02T13:37:39.517Z,27.60
2022-11-02T13:40:21.647Z,27.57
2022-11-02T13:43:14.699Z,27.56
2022-11-02T13:45:55.445Z,27.52
2022-11-02T13:48:52.616Z,27.55
2022-11-02T13:51:27.662Z,27.52
2022-11-02T13:54:02.182Z,27.50
2022-11-02T13:56:31.491Z,27.45
2022-11-02T13:59:03.374Z,27.41
2022-11-02T14:01:37.199Z,27.34
2022-11-02T14:04:09.057Z,27.28
2022-11-02T14:06:49.044Z,27.25
2022-11-02T14:09:30.840Z,27.25
2022-11-02T14:12:41.808Z,27.24
2022-11-02T14:15:42.248Z,27.19
2022-11-02T14:18:33.726Z,27.12
2022-11-02T14:21:47.557Z,27.08
2022-11-02T14:24:59.795Z,27.09
2022-11-02T14:27:32.032Z,27.05
2022-11-02T14:30:00.457Z,26.98
2022-11-02T14:32:47.373Z,27.05
2022-11-02T14:35:32.242Z,26.94
2022-11-02T14:38:22.733Z,26.87
2022-11-02T14:41:00.120Z,26.73
2022-11-02T14:43:49.798Z,26.69
2022-11-02T14:46:34.463Z,26.57
2022-11-02T14:49:04.852Z,26.44
2022-11-02T14:51:37.983Z,26.25
2022-11-02T14:54:16.038Z,26.16
2022-11-02T14:56:54.748Z,26.06
2022-11-02T14:59:27.618Z,25.98
2022-11-02T15:01:58.987Z,25.92
2022-11-02T15:04:29.598Z,25.81
2022-11-02T15:07:02.045Z,25.68
2022-11-02T15:09:53.116Z,25.62
2022-11-02T15:12:37.709Z,25.52
2022-11-02T15:15:38.656Z,25.42
2022-11-02T15:18:25.432Z,25.33
2022-11-02T15:21:27.199Z,25.21
2022-11-02T15:24:18.040Z,25.08
2022-11-02T15:26:50.953Z,24.99
2022-11-02T15:29:34.579Z,24.86
2022-11-02T15:32:04.975Z,24.77
2022-11-02T15:34:37.786Z,24.67
2022-11-02T15:37:06.404Z,24.51
2022-11-02T15:39:36.717Z,24.26
2022-11-02T15:42:13.588Z,24.02
2022-11-02T15:45:27.001Z,23.71
2022-11-02T15:48:16.384Z,23.49
2022-11-02T15:50:55.771Z,23.35
2022-11-02T15:53:38.369Z,23.29
2022-11-02T15:56:28.694Z,23.31
2022-11-02T15:59:15.984Z,23.45
2022-11-02T16:01:44.252Z,23.37
2022-11-02T16:04:22.112Z,23.30
2022-11-02T16:06:50.567Z,23.14
2022-11-02T16:09:33.248Z,22.97
2022-11-02T16:12:13.119Z,22.91
2022-11-02T16:14:41.913Z,22.75
2022-11-02T16:17:20.956Z,22.60
2022-11-02T16:19:49.600Z,22.49
2022-11-02T16:22:28.079Z,22.35
2022-11-02T16:24:56.463Z,22.21
2022-11-02T16:27:26.418Z,22.17
2022-11-02T16:29:54.502Z,22.14
2022-11-02T16:32:22.647Z,22.12
2022-11-02T16:34:51.201Z,22.14
2022-11-02T16:37:21.610Z,22.13
2022-11-02T16:39:50.314Z,22.05
2022-11-02T16:42:22.998Z,22.14
2022-11-02T16:44:58.032Z,22.09
2022-11-02T16:47:41.481Z,21.99
2022-11-02T16:50:25.308Z,21.86
2022-11-02T16:52:58.955Z,21.79
2022-11-02T16:55:41.782Z,21.73
2022-11-02T16:58:20.411Z,21.68
2022-11-02T17:00:59.652Z,21.58
2022-11-02T17:03:32.478Z,21.48
2022-11-02T17:06:03.398Z,21.34
2022-11-02T17:08:34.541Z,21.23
2022-11-02T17:11:06.375Z,21.16
2022-11-02T17:13:37.793Z,21.06
2022-11-02T17:16:11.791Z,21.00
2022-11-02T17:18:40.127Z,20.96
2022-11-02T17:21:32.387Z,20.85
2022-11-02T17:24:00.933Z,20.79
2022-11-02T17:26:35.317Z,20.66
2022-11-02T17:29:05.069Z,20.57
2022-11-02T17:31:36.599Z,20.50
2022-11-02T17:34:11.566Z,20.40
2022-11-02T17:36:43.938Z,20.45
2022-11-02T17:39:14.891Z,20.47
2022-11-02T17:42:01.046Z,20.48
2022-11-02T17:44:29.228Z,20.46
2022-11-02T17:46:58.720Z,20.44
2022-11-02T17:49:26.779Z,20.45
2022-11-02T17:51:56.706Z,20.44
2022-11-02T17:54:24.875Z,20.42
2022-11-02T17:56:54.240Z,20.27
2022-11-02T17:59:22.288Z,20.17
2022-11-02T18:01:50.445Z,20.11
2022-11-02T18:04:20.118Z,20.07
2022-11-02T18:06:48.127Z,19.94
2022-11-02T18:09:19.433Z,19.91
2022-11-02T18:11:49.146Z,19.79
2022-11-02T18:14:18.146Z,19.72
2022-11-02T18:16:48.102Z,19.74
2022-11-02T18:19:17.171Z,19.70
2022-11-02T18:21:47.149Z,19.59
2022-11-02T18:24:15.448Z,19.50
2022-11-02T18:26:45.872Z,19.47
2022-11-02T18:29:15.183Z,19.45
2022-11-02T18:31:43.419Z,19.52
2022-11-02T18:34:11.693Z,19.47
2022-11-02T18:36:41.038Z,19.47
2022-11-02T18:39:10.613Z,19.46
2022-11-02T18:41:40.440Z,19.49
2022-11-02T18:44:14.898Z,19.44
2022-11-02T18:46:43.489Z,19.42
2022-11-02T18:49:11.570Z,19.38
2022-11-02T18:51:43.171Z,19.28
2022-11-02T18:54:13.274Z,19.27
2022-11-02T18:56:41.655Z,19.25
2022-11-02T18:59:09.808Z,19.23
2022-11-02T19:01:38.371Z,19.23
2022-11-02T19:04:06.775Z,19.24
2022-11-02T19:06:52.965Z,19.24
2022-11-02T19:09:26.968Z,19.23
2022-11-02T19:12:01.992Z,19.31
2022-11-02T19:14:32.094Z,19.37
2022-11-02T19:17:00.322Z,19.49
2022-11-02T19:19:28.613Z,19.54
2022-11-02T19:21:56.734Z,19.66
2022-11-02T19:24:26.645Z,19.70
2022-11-02T19:26:55.124Z,19.75
2022-11-02T19:29:23.168Z,19.76
2022-11-02T19:31:51.338Z,19.72
2022-11-02T19:34:29.213Z,19.63
2022-11-02T19:36:57.700Z,19.55
2022-11-02T19:39:28.165Z,19.57
2022-11-02T19:41:56.286Z,19.50
2022-11-02T19:44:24.484Z,19.44
2022-11-02T19:46:53.406Z,19.37
2022-11-02T19:49:22.214Z,19.33
2022-11-02T19:51:51.947Z,19.31
2022-11-02T19:54:20.782Z,19.25
2022-11-02T19:56:50.461Z,19.17
2022-11-02T19:59:19.985Z,19.08
2022-11-02T20:01:50.876Z,18.94
2022-11-02T20:04:19.423Z,18.87
2022-11-02T20:06:47.446Z,18.87
2022-11-02T20:09:17.861Z,18.72
2022-11-02T20:11:47.036Z,18.67
2022-11-02T20:14:18.695Z,18.59
2022-11-02T20:16:58.615Z,18.55
2022-11-02T20:19:36.179Z,18.40
2022-11-02T20:22:04.438Z,18.35
2022-11-02T20:24:35.740Z,18.34
2022-11-02T20:27:06.745Z,18.34
2022-11-02T20:29:36.446Z,18.26
2022-11-02T20:32:10.191Z,18.26
2022-11-02T20:34:38.347Z,18.33
2022-11-02T20:37:07.506Z,18.31
2022-11-02T20:39:35.694Z,18.33
2022-11-02T20:42:03.775Z,18.35
2022-11-02T20:44:32.320Z,18.35
2022-11-02T20:47:02.039Z,18.43
2022-11-02T20:49:49.421Z,18.42
2022-11-02T20:52:18.912Z,18.44
2022-11-02T20:54:47.348Z,18.45
2022-11-02T20:57:15.432Z,18.49
2022-11-02T20:59:43.596Z,18.46
2022-11-02T21:02:13.434Z,18.45
2022-11-02T21:04:41.717Z,18.45
2022-11-02T21:07:09.941Z,18.42
2022-11-02T21:09:37.983Z,18.46
2022-11-02T21:12:23.944Z,18.45
2022-11-02T21:14:52.010Z,18.44
2022-11-02T21:17:21.482Z,18.42
2022-11-02T21:19:54.214Z,18.39
2022-11-02T21:22:26.230Z,18.31
2022-11-02T21:24:54.414Z,18.23
2022-11-02T21:27:23.123Z,18.16
2022-11-02T21:29:51.094Z,18.09
2022-11-02T21:32:19.219Z,18.01
2022-11-02T21:34:48.664Z,17.95
2022-11-02T21:37:16.696Z,17.91
2022-11-02T21:39:44.876Z,17.81
2022-11-02T21:42:12.956Z,17.78
2022-11-02T21:44:41.005Z,17.74
2022-11-02T21:47:09.434Z,17.71
2022-11-02T21:49:37.602Z,17.64
2022-11-02T21:52:07.074Z,17.54
2022-11-02T21:54:35.188Z,17.55
2022-11-02T21:57:03.299Z,17.53
2022-11-02T21:59:31.371Z,17.50
2022-11-02T22:01:59.614Z,17.45
2022-11-02T22:04:31.154Z,17.45
2022-11-02T22:07:00.254Z,17.44
2022-11-02T22:09:30.191Z,17.47
2022-11-02T22:12:16.158Z,17.51
2022-11-02T22:14:45.206Z,17.54
2022-11-02T22:17:43.385Z,17.66
2022-11-02T22:20:04.263Z,17.77
2022-11-02T22:22:32.330Z,17.85
2022-11-02T22:25:01.788Z,17.89
2022-11-02T22:27:30.017Z,17.94
2022-11-02T22:29:58.066Z,18.02
2022-11-02T22:32:26.156Z,18.11
2022-11-02T22:34:54.222Z,18.19
2022-11-02T22:37:45.064Z,18.15
2022-11-02T22:40:14.736Z,18.15
2022-11-02T22:42:42.814Z,18.08
2022-11-02T22:45:12.052Z,18.03
2022-11-02T22:47:40.212Z,18.00
2022-11-02T22:50:09.138Z,17.96
2022-11-02T22:52:37.204Z,17.87
2022-11-02T22:55:05.729Z,17.76
2022-11-02T22:57:35.167Z,17.61
2022-11-02T23:00:03.319Z,17.53
2022-11-02T23:02:31.398Z,17.53
2022-11-02T23:04:59.389Z,17.60
2022-11-02T23:07:27.414Z,17.49
2022-11-02T23:09:55.443Z,17.48
2022-11-02T23:12:22.447Z,17.33
2022-11-02T23:14:51.934Z,17.29
2022-11-02T23:17:19.928Z,17.36
2022-11-02T23:19:47.113Z,17.43
2022-11-02T23:22:44.126Z,17.43
2022-11-02T23:25:12.584Z,17.41
2022-11-02T23:27:56.960Z,17.36
2022-11-02T23:30:45.132Z,17.39
2022-11-02T23:33:13.435Z,17.37
2022-11-02T23:35:58.748Z,17.33
2022-11-02T23:38:47.407Z,17.30
2022-11-02T23:41:15.636Z,17.39
2022-11-02T23:43:43.709Z,17.44
2022-11-02T23:46:13.230Z,17.48
2022-11-02T23:48:42.846Z,17.58
2022-11-02T23:51:29.131Z,17.69
2022-11-02T23:54:22.798Z,17.82
2022-11-02T23:56:51.134Z,17.93
2022-11-02T23:59:19.755Z,17.97
